sensor_id;sensor_type;location;lat;lon;timestamp;temperature;humidity
16229;DHT22;8222;51.462;12.630;2024-02-21T00:01:39;10.30;99.90
16229;DHT22;8222;51.462;12.630;2024-02-21T00:04:05;10.40;99.90
16229;DHT22;8222;51.462;12.630;2024-02-21T00:06:31;10.30;99.90
16229;DHT22;8222;51.462;12.630;2024-02-21T00:08:59;10.30;99.90
16229;DHT22;8222;51.462;12.630;2024-02-21T00:11:28;10.20;99.90
16229;DHT22;8222;51.462;12.630;2024-02-21T00:13:56;10.20;99.90
16229;DHT22;8222;51.462;12.630;2024-02-21T00:16:24;10.30;99.90
16229;DHT22;8222;51.462;12.630;2024-02-21T00:18:50;10.30;99.90
16229;DHT22;8222;51.462;12.630;2024-02-21T00:21:15;10.30;99.90
16229;DHT22;8222;51.462;12.630;2024-02-21T00:23:46;10.30;99.90
16229;DHT22;8222;51.462;12.630;2024-02-21T00:26:16;10.20;99.90
16229;DHT22;8222;51.462;12.630;2024-02-21T00:28:42;10.20;99.90
16229;DHT22;8222;51.462;12.630;2024-02-21T00:31:10;10.10;99.90
16229;DHT22;8222;51.462;12.630;2024-02-21T00:33:36;10.10;99.90
16229;DHT22;8222;51.462;12.630;2024-02-21T00:36:06;10.00;99.90
16229;DHT22;8222;51.462;12.630;2024-02-21T00:38:37;10.10;99.90
16229;DHT22;8222;51.462;12.630;2024-02-21T00:41:03;10.10;99.90
16229;DHT22;8222;51.462;12.630;2024-02-21T00:43:31;10.20;99.90
16229;DHT22;8222;51.462;12.630;2024-02-21T00:45:57;10.10;99.90
16229;DHT22;8222;51.462;12.630;2024-02-21T00:48:22;10.10;99.90
16229;DHT22;8222;51.462;12.630;2024-02-21T00:50:48;10.00;99.90
16229;DHT22;8222;51.462;12.630;2024-02-21T00:53:13;10.00;99.90
16229;DHT22;8222;51.462;12.630;2024-02-21T00:55:39;10.00;99.90
16229;DHT22;8222;51.462;12.630;2024-02-21T00:58:05;9.90;99.90
16229;DHT22;8222;51.462;12.630;2024-02-21T01:00:31;9.90;99.90
16229;DHT22;8222;51.462;12.630;2024-02-21T01:03:06;9.90;99.90
16229;DHT22;8222;51.462;12.630;2024-02-21T01:05:32;10.00;99.90
16229;DHT22;8222;51.462;12.630;2024-02-21T01:07:58;9.90;99.90
16229;DHT22;8222;51.462;12.630;2024-02-21T01:10:24;10.00;99.90
16229;DHT22;8222;51.462;12.630;2024-02-21T01:12:52;10.00;99.90
16229;DHT22;8222;51.462;12.630;2024-02-21T01:15:18;10.00;99.90
16229;DHT22;8222;51.462;12.630;2024-02-21T01:17:46;10.00;99.90
16229;DHT22;8222;51.462;12.630;2024-02-21T01:20:11;10.00;99.90
16229;DHT22;8222;51.462;12.630;2024-02-21T01:22:39;10.00;99.90
16229;DHT22;8222;51.462;12.630;2024-02-21T01:25:05;10.00;99.90
16229;DHT22;8222;51.462;12.630;2024-02-21T01:27:31;10.10;99.90
16229;DHT22;8222;51.462;12.630;2024-02-21T01:29:59;10.20;99.90
16229;DHT22;8222;51.462;12.630;2024-02-21T01:32:25;10.10;99.90
16229;DHT22;8222;51.462;12.630;2024-02-21T01:34:53;10.20;99.90
16229;DHT22;8222;51.462;12.630;2024-02-21T01:37:18;10.10;99.90
16229;DHT22;8222;51.462;12.630;2024-02-21T01:39:44;10.20;99.90
16229;DHT22;8222;51.462;12.630;2024-02-21T01:42:09;10.10;99.90
16229;DHT22;8222;51.462;12.630;2024-02-21T01:44:35;10.10;99.90
16229;DHT22;8222;51.462;12.630;2024-02-21T01:47:02;10.00;99.90
16229;DHT22;8222;51.462;12.630;2024-02-21T01:49:28;10.40;99.90
16229;DHT22;8222;51.462;12.630;2024-02-21T01:51:59;10.00;99.90
16229;DHT22;8222;51.462;12.630;2024-02-21T01:54:25;10.50;99.90
16229;DHT22;8222;51.462;12.630;2024-02-21T01:56:56;10.20;99.90
16229;DHT22;8222;51.462;12.630;2024-02-21T01:59:22;10.20;99.90
16229;DHT22;8222;51.462;12.630;2024-02-21T02:01:51;10.20;99.90
16229;DHT22;8222;51.462;12.630;2024-02-21T02:04:18;10.20;99.90
16229;DHT22;8222;51.462;12.630;2024-02-21T02:06:47;10.20;99.90
16229;DHT22;8222;51.462;12.630;2024-02-21T02:09:12;10.20;99.90
16229;DHT22;8222;51.462;12.630;2024-02-21T02:11:38;10.20;99.90
16229;DHT22;8222;51.462;12.630;2024-02-21T02:14:06;10.20;99.90
16229;DHT22;8222;51.462;12.630;2024-02-21T02:16:32;10.20;99.90
16229;DHT22;8222;51.462;12.630;2024-02-21T02:19:00;10.20;99.90
16229;DHT22;8222;51.462;12.630;2024-02-21T02:23:54;10.30;99.90
16229;DHT22;8222;51.462;12.630;2024-02-21T02:26:23;10.20;99.90
16229;DHT22;8222;51.462;12.630;2024-02-21T02:28:48;10.20;99.90
16229;DHT22;8222;51.462;12.630;2024-02-21T02:31:14;10.20;99.90
16229;DHT22;8222;51.462;12.630;2024-02-21T02:33:42;10.10;99.90
16229;DHT22;8222;51.462;12.630;2024-02-21T02:36:08;10.10;99.90
16229;DHT22;8222;51.462;12.630;2024-02-21T02:38:39;10.10;99.90
16229;DHT22;8222;51.462;12.630;2024-02-21T02:41:05;10.00;99.90
16229;DHT22;8222;51.462;12.630;2024-02-21T02:43:30;10.00;99.90
16229;DHT22;8222;51.462;12.630;2024-02-21T02:45:59;10.00;99.90
16229;DHT22;8222;51.462;12.630;2024-02-21T02:48:25;10.10;99.90
16229;DHT22;8222;51.462;12.630;2024-02-21T02:50:50;10.10;99.90
16229;DHT22;8222;51.462;12.630;2024-02-21T02:53:16;10.20;99.90
16229;DHT22;8222;51.462;12.630;2024-02-21T02:55:41;10.30;99.90
16229;DHT22;8222;51.462;12.630;2024-02-21T02:58:07;10.20;99.90
16229;DHT22;8222;51.462;12.630;2024-02-21T03:00:34;10.10;99.90
16229;DHT22;8222;51.462;12.630;2024-02-21T03:03:01;10.00;99.90
16229;DHT22;8222;51.462;12.630;2024-02-21T03:05:29;10.00;99.90
16229;DHT22;8222;51.462;12.630;2024-02-21T03:07:55;10.00;99.90
16229;DHT22;8222;51.462;12.630;2024-02-21T03:10:20;10.00;99.90
16229;DHT22;8222;51.462;12.630;2024-02-21T03:12:46;10.10;99.90
16229;DHT22;8222;51.462;12.630;2024-02-21T03:15:13;9.90;99.90
16229;DHT22;8222;51.462;12.630;2024-02-21T03:17:39;9.90;99.90
16229;DHT22;8222;51.462;12.630;2024-02-21T03:20:07;9.90;99.90
16229;DHT22;8222;51.462;12.630;2024-02-21T03:22:37;9.90;99.90
16229;DHT22;8222;51.462;12.630;2024-02-21T03:25:05;9.80;99.90
16229;DHT22;8222;51.462;12.630;2024-02-21T03:27:31;9.80;99.90
16229;DHT22;8222;51.462;12.630;2024-02-21T03:29:57;9.80;99.90
16229;DHT22;8222;51.462;12.630;2024-02-21T03:32:23;10.20;99.90
16229;DHT22;8222;51.462;12.630;2024-02-21T03:34:48;9.90;99.90
16229;DHT22;8222;51.462;12.630;2024-02-21T03:37:14;9.90;99.90
16229;DHT22;8222;51.462;12.630;2024-02-21T03:39:42;9.90;99.90
16229;DHT22;8222;51.462;12.630;2024-02-21T03:42:07;9.90;99.90
16229;DHT22;8222;51.462;12.630;2024-02-21T03:44:33;9.90;99.90
16229;DHT22;8222;51.462;12.630;2024-02-21T03:47:00;10.10;99.90
16229;DHT22;8222;51.462;12.630;2024-02-21T03:49:26;9.90;99.90
16229;DHT22;8222;51.462;12.630;2024-02-21T03:51:56;9.90;99.90
16229;DHT22;8222;51.462;12.630;2024-02-21T03:54:24;10.10;99.90
16229;DHT22;8222;51.462;12.630;2024-02-21T03:56:52;10.70;99.90
16229;DHT22;8222;51.462;12.630;2024-02-21T03:59:17;10.00;99.90
16229;DHT22;8222;51.462;12.630;2024-02-21T04:01:43;10.00;99.90
16229;DHT22;8222;51.462;12.630;2024-02-21T04:04:10;9.90;99.90
16229;DHT22;8222;51.462;12.630;2024-02-21T04:06:35;9.90;99.90
16229;DHT22;8222;51.462;12.630;2024-02-21T04:09:02;9.90;99.90
16229;DHT22;8222;51.462;12.630;2024-02-21T04:11:27;10.00;99.90
16229;DHT22;8222;51.462;12.630;2024-02-21T04:13:55;9.90;99.90
16229;DHT22;8222;51.462;12.630;2024-02-21T04:16:26;9.90;99.90
16229;DHT22;8222;51.462;12.630;2024-02-21T04:18:56;9.90;99.90
16229;DHT22;8222;51.462;12.630;2024-02-21T04:21:24;10.10;99.90
16229;DHT22;8222;51.462;12.630;2024-02-21T04:23:53;10.00;99.90
16229;DHT22;8222;51.462;12.630;2024-02-21T04:26:21;10.00;99.90
16229;DHT22;8222;51.462;12.630;2024-02-21T04:28:46;10.00;99.90
16229;DHT22;8222;51.462;12.630;2024-02-21T04:31:12;10.10;99.90
16229;DHT22;8222;51.462;12.630;2024-02-21T04:33:40;10.00;99.90
16229;DHT22;8222;51.462;12.630;2024-02-21T04:36:06;10.00;99.90
16229;DHT22;8222;51.462;12.630;2024-02-21T04:38:34;10.00;99.90
16229;DHT22;8222;51.462;12.630;2024-02-21T04:41:00;9.90;99.90
16229;DHT22;8222;51.462;12.630;2024-02-21T04:43:25;9.90;99.90
16229;DHT22;8222;51.462;12.630;2024-02-21T04:45:51;10.00;99.90
16229;DHT22;8222;51.462;12.630;2024-02-21T04:48:19;10.00;99.90
16229;DHT22;8222;51.462;12.630;2024-02-21T04:50:44;10.00;99.90
16229;DHT22;8222;51.462;12.630;2024-02-21T04:53:10;10.00;99.90
16229;DHT22;8222;51.462;12.630;2024-02-21T04:55:35;10.00;99.90
16229;DHT22;8222;51.462;12.630;2024-02-21T04:58:01;10.20;99.90
16229;DHT22;8222;51.462;12.630;2024-02-21T05:00:29;10.00;99.90
16229;DHT22;8222;51.462;12.630;2024-02-21T05:02:55;10.00;99.90
16229;DHT22;8222;51.462;12.630;2024-02-21T05:05:20;10.00;99.90
16229;DHT22;8222;51.462;12.630;2024-02-21T05:07:48;10.00;99.90
16229;DHT22;8222;51.462;12.630;2024-02-21T05:10:14;10.00;99.90
16229;DHT22;8222;51.462;12.630;2024-02-21T05:12:39;10.40;99.90
16229;DHT22;8222;51.462;12.630;2024-02-21T05:15:08;10.00;99.90
16229;DHT22;8222;51.462;12.630;2024-02-21T05:17:38;10.10;99.90
16229;DHT22;8222;51.462;12.630;2024-02-21T05:20:04;10.00;99.90
16229;DHT22;8222;51.462;12.630;2024-02-21T05:22:32;10.00;99.90
16229;DHT22;8222;51.462;12.630;2024-02-21T05:25:00;10.00;99.90
16229;DHT22;8222;51.462;12.630;2024-02-21T05:27:28;10.00;99.90
16229;DHT22;8222;51.462;12.630;2024-02-21T05:29:59;10.00;99.90
16229;DHT22;8222;51.462;12.630;2024-02-21T05:32:25;10.00;99.90
16229;DHT22;8222;51.462;12.630;2024-02-21T05:34:51;10.00;99.90
16229;DHT22;8222;51.462;12.630;2024-02-21T05:37:17;10.20;99.90
16229;DHT22;8222;51.462;12.630;2024-02-21T05:39:42;10.00;99.90
16229;DHT22;8222;51.462;12.630;2024-02-21T05:42:09;10.00;99.90
16229;DHT22;8222;51.462;12.630;2024-02-21T05:44:34;10.00;99.90
16229;DHT22;8222;51.462;12.630;2024-02-21T05:47:00;9.90;99.90
16229;DHT22;8222;51.462;12.630;2024-02-21T05:49:25;9.90;99.90
16229;DHT22;8222;51.462;12.630;2024-02-21T05:51:53;9.90;99.90
16229;DHT22;8222;51.462;12.630;2024-02-21T05:54:19;10.00;99.90
16229;DHT22;8222;51.462;12.630;2024-02-21T05:56:45;10.00;99.90
16229;DHT22;8222;51.462;12.630;2024-02-21T05:59:11;10.00;99.90
16229;DHT22;8222;51.462;12.630;2024-02-21T06:01:41;10.20;99.90
16229;DHT22;8222;51.462;12.630;2024-02-21T06:04:07;10.10;99.90
16229;DHT22;8222;51.462;12.630;2024-02-21T06:06:33;10.00;99.90
16229;DHT22;8222;51.462;12.630;2024-02-21T06:08:59;10.20;99.90
16229;DHT22;8222;51.462;12.630;2024-02-21T06:11:25;10.20;99.90
16229;DHT22;8222;51.462;12.630;2024-02-21T06:13:51;10.30;99.90
16229;DHT22;8222;51.462;12.630;2024-02-21T06:16:16;10.30;99.90
16229;DHT22;8222;51.462;12.630;2024-02-21T06:18:42;10.40;99.90
16229;DHT22;8222;51.462;12.630;2024-02-21T06:21:10;10.40;99.90
16229;DHT22;8222;51.462;12.630;2024-02-21T06:23:38;10.50;99.90
16229;DHT22;8222;51.462;12.630;2024-02-21T06:26:03;10.50;99.90
16229;DHT22;8222;51.462;12.630;2024-02-21T06:28:29;10.50;99.90
16229;DHT22;8222;51.462;12.630;2024-02-21T06:30:54;10.50;99.90
16229;DHT22;8222;51.462;12.630;2024-02-21T06:33:20;10.40;99.90
16229;DHT22;8222;51.462;12.630;2024-02-21T06:35:50;10.40;99.90
16229;DHT22;8222;51.462;12.630;2024-02-21T06:38:20;10.40;99.90
16229;DHT22;8222;51.462;12.630;2024-02-21T06:40:46;10.30;99.90
16229;DHT22;8222;51.462;12.630;2024-02-21T06:43:17;10.40;99.90
16229;DHT22;8222;51.462;12.630;2024-02-21T06:45:46;10.30;99.90
16229;DHT22;8222;51.462;12.630;2024-02-21T06:48:15;10.30;99.90
16229;DHT22;8222;51.462;12.630;2024-02-21T06:50:43;10.30;99.90
16229;DHT22;8222;51.462;12.630;2024-02-21T06:53:08;10.40;99.90
16229;DHT22;8222;51.462;12.630;2024-02-21T06:55:34;10.40;99.90
16229;DHT22;8222;51.462;12.630;2024-02-21T06:58:00;10.30;99.90
16229;DHT22;8222;51.462;12.630;2024-02-21T07:00:30;10.40;99.90
16229;DHT22;8222;51.462;12.630;2024-02-21T07:02:55;10.40;99.90
16229;DHT22;8222;51.462;12.630;2024-02-21T07:05:24;10.40;99.90
16229;DHT22;8222;51.462;12.630;2024-02-21T07:07:52;10.40;99.90
16229;DHT22;8222;51.462;12.630;2024-02-21T07:10:17;10.30;99.90
16229;DHT22;8222;51.462;12.630;2024-02-21T07:12:45;10.40;99.90
16229;DHT22;8222;51.462;12.630;2024-02-21T07:15:11;10.40;99.90
16229;DHT22;8222;51.462;12.630;2024-02-21T07:17:36;10.40;99.90
16229;DHT22;8222;51.462;12.630;2024-02-21T07:20:07;10.40;99.90
16229;DHT22;8222;51.462;12.630;2024-02-21T07:22:33;10.30;99.90
16229;DHT22;8222;51.462;12.630;2024-02-21T07:25:03;10.30;99.90
16229;DHT22;8222;51.462;12.630;2024-02-21T07:27:29;10.20;99.90
16229;DHT22;8222;51.462;12.630;2024-02-21T07:29:58;10.20;99.90
16229;DHT22;8222;51.462;12.630;2024-02-21T07:32:24;10.20;99.90
16229;DHT22;8222;51.462;12.630;2024-02-21T07:34:49;10.20;99.90
16229;DHT22;8222;51.462;12.630;2024-02-21T07:37:15;10.20;99.90
16229;DHT22;8222;51.462;12.630;2024-02-21T07:39:43;10.20;99.90
16229;DHT22;8222;51.462;12.630;2024-02-21T07:42:09;10.20;99.90
16229;DHT22;8222;51.462;12.630;2024-02-21T07:44:37;10.20;99.90
16229;DHT22;8222;51.462;12.630;2024-02-21T07:47:03;10.30;99.90
16229;DHT22;8222;51.462;12.630;2024-02-21T07:49:28;10.40;99.90
16229;DHT22;8222;51.462;12.630;2024-02-21T07:51:54;10.40;99.90
16229;DHT22;8222;51.462;12.630;2024-02-21T07:54:22;10.60;99.90
16229;DHT22;8222;51.462;12.630;2024-02-21T07:56:48;10.70;99.90
16229;DHT22;8222;51.462;12.630;2024-02-21T07:59:13;10.70;99.90
16229;DHT22;8222;51.462;12.630;2024-02-21T08:01:39;10.80;99.90
16229;DHT22;8222;51.462;12.630;2024-02-21T08:04:05;10.90;99.90
16229;DHT22;8222;51.462;12.630;2024-02-21T08:06:31;11.00;99.90
16229;DHT22;8222;51.462;12.630;2024-02-21T08:08:57;11.10;99.90
16229;DHT22;8222;51.462;12.630;2024-02-21T08:11:25;11.20;99.90
16229;DHT22;8222;51.462;12.630;2024-02-21T08:13:53;11.40;99.90
16229;DHT22;8222;51.462;12.630;2024-02-21T08:16:25;11.40;99.90
16229;DHT22;8222;51.462;12.630;2024-02-21T08:18:52;11.70;99.90
16229;DHT22;8222;51.462;12.630;2024-02-21T08:21:17;11.70;99.90
16229;DHT22;8222;51.462;12.630;2024-02-21T08:23:43;11.60;99.90
16229;DHT22;8222;51.462;12.630;2024-02-21T08:26:09;11.60;99.90
16229;DHT22;8222;51.462;12.630;2024-02-21T08:28:37;11.60;99.90
16229;DHT22;8222;51.462;12.630;2024-02-21T08:31:02;11.50;99.90
16229;DHT22;8222;51.462;12.630;2024-02-21T08:33:28;11.50;99.90
16229;DHT22;8222;51.462;12.630;2024-02-21T08:35:55;11.50;99.90
16229;DHT22;8222;51.462;12.630;2024-02-21T08:38:20;11.50;99.90
16229;DHT22;8222;51.462;12.630;2024-02-21T08:40:48;11.40;99.90
16229;DHT22;8222;51.462;12.630;2024-02-21T08:43:14;11.40;99.90
16229;DHT22;8222;51.462;12.630;2024-02-21T08:45:40;11.50;99.90
16229;DHT22;8222;51.462;12.630;2024-02-21T08:48:06;11.60;99.90
16229;DHT22;8222;51.462;12.630;2024-02-21T08:50:31;11.60;99.90
16229;DHT22;8222;51.462;12.630;2024-02-21T08:52:57;11.70;99.90
16229;DHT22;8222;51.462;12.630;2024-02-21T08:55:23;11.80;99.90
16229;DHT22;8222;51.462;12.630;2024-02-21T08:57:49;11.80;99.90
16229;DHT22;8222;51.462;12.630;2024-02-21T09:00:15;11.80;99.90
16229;DHT22;8222;51.462;12.630;2024-02-21T09:02:42;11.80;99.90
16229;DHT22;8222;51.462;12.630;2024-02-21T09:05:08;11.80;99.90
16229;DHT22;8222;51.462;12.630;2024-02-21T09:07:34;11.80;99.90
16229;DHT22;8222;51.462;12.630;2024-02-21T09:10:00;11.90;99.90
16229;DHT22;8222;51.462;12.630;2024-02-21T09:12:30;12.00;99.90
16229;DHT22;8222;51.462;12.630;2024-02-21T09:14:56;12.00;99.90
16229;DHT22;8222;51.462;12.630;2024-02-21T09:17:22;12.50;99.90
16229;DHT22;8222;51.462;12.630;2024-02-21T09:19:50;12.20;99.90
16229;DHT22;8222;51.462;12.630;2024-02-21T09:22:16;12.40;99.90
16229;DHT22;8222;51.462;12.630;2024-02-21T09:24:43;12.40;99.90
16229;DHT22;8222;51.462;12.630;2024-02-21T09:27:09;12.60;99.90
16229;DHT22;8222;51.462;12.630;2024-02-21T09:29:35;12.50;99.90
16229;DHT22;8222;51.462;12.630;2024-02-21T09:32:01;12.60;99.90
16229;DHT22;8222;51.462;12.630;2024-02-21T09:34:28;12.60;99.90
16229;DHT22;8222;51.462;12.630;2024-02-21T09:36:54;12.60;99.90
16229;DHT22;8222;51.462;12.630;2024-02-21T09:39:19;12.60;99.90
16229;DHT22;8222;51.462;12.630;2024-02-21T09:41:50;12.70;99.90
16229;DHT22;8222;51.462;12.630;2024-02-21T09:44:21;12.70;99.90
16229;DHT22;8222;51.462;12.630;2024-02-21T09:46:56;12.60;99.90
16229;DHT22;8222;51.462;12.630;2024-02-21T09:49:35;12.60;99.90
16229;DHT22;8222;51.462;12.630;2024-02-21T09:52:06;13.00;99.90
16229;DHT22;8222;51.462;12.630;2024-02-21T09:54:33;12.80;99.90
16229;DHT22;8222;51.462;12.630;2024-02-21T09:57:05;12.90;99.90
16229;DHT22;8222;51.462;12.630;2024-02-21T09:59:32;13.00;99.90
16229;DHT22;8222;51.462;12.630;2024-02-21T10:01:58;12.90;99.90
16229;DHT22;8222;51.462;12.630;2024-02-21T10:04:27;12.90;99.90
16229;DHT22;8222;51.462;12.630;2024-02-21T10:06:54;12.90;99.90
16229;DHT22;8222;51.462;12.630;2024-02-21T10:09:21;13.00;99.90
16229;DHT22;8222;51.462;12.630;2024-02-21T10:11:50;13.20;99.90
16229;DHT22;8222;51.462;12.630;2024-02-21T10:14:16;13.30;99.90
16229;DHT22;8222;51.462;12.630;2024-02-21T10:16:42;13.30;99.90
16229;DHT22;8222;51.462;12.630;2024-02-21T10:19:20;13.10;99.90
16229;DHT22;8222;51.462;12.630;2024-02-21T10:24:39;13.00;99.90
16229;DHT22;8222;51.462;12.630;2024-02-21T10:27:09;13.00;99.90
16229;DHT22;8222;51.462;12.630;2024-02-21T10:29:36;13.00;99.90
16229;DHT22;8222;51.462;12.630;2024-02-21T10:34:36;13.20;99.90
16229;DHT22;8222;51.462;12.630;2024-02-21T10:37:06;13.20;99.90
16229;DHT22;8222;51.462;12.630;2024-02-21T10:39:38;13.40;99.90
16229;DHT22;8222;51.462;12.630;2024-02-21T10:42:07;13.40;99.90
16229;DHT22;8222;51.462;12.630;2024-02-21T10:44:39;13.40;99.90
16229;DHT22;8222;51.462;12.630;2024-02-21T10:47:08;13.40;99.90
16229;DHT22;8222;51.462;12.630;2024-02-21T10:49:40;13.50;99.90
16229;DHT22;8222;51.462;12.630;2024-02-21T10:55:07;13.60;99.90
16229;DHT22;8222;51.462;12.630;2024-02-21T10:57:38;13.60;99.90
16229;DHT22;8222;51.462;12.630;2024-02-21T11:00:06;13.60;99.90
16229;DHT22;8222;51.462;12.630;2024-02-21T11:02:36;13.60;99.90
16229;DHT22;8222;51.462;12.630;2024-02-21T11:05:03;13.70;99.90
16229;DHT22;8222;51.462;12.630;2024-02-21T11:07:30;13.60;99.90
16229;DHT22;8222;51.462;12.630;2024-02-21T11:09:59;13.80;99.90
16229;DHT22;8222;51.462;12.630;2024-02-21T11:12:25;13.90;99.90
16229;DHT22;8222;51.462;12.630;2024-02-21T11:14:52;14.00;99.90
16229;DHT22;8222;51.462;12.630;2024-02-21T11:17:29;14.10;99.90
16229;DHT22;8222;51.462;12.630;2024-02-21T11:19:55;13.70;99.90
16229;DHT22;8222;51.462;12.630;2024-02-21T11:22:21;13.80;99.90
16229;DHT22;8222;51.462;12.630;2024-02-21T11:24:50;13.90;99.90
16229;DHT22;8222;51.462;12.630;2024-02-21T11:27:20;13.90;99.90
16229;DHT22;8222;51.462;12.630;2024-02-21T11:29:47;13.90;99.90
16229;DHT22;8222;51.462;12.630;2024-02-21T11:32:16;13.90;99.90
16229;DHT22;8222;51.462;12.630;2024-02-21T11:35:04;13.90;99.90
16229;DHT22;8222;51.462;12.630;2024-02-21T11:37:34;14.00;99.90
16229;DHT22;8222;51.462;12.630;2024-02-21T11:40:02;13.90;99.90
16229;DHT22;8222;51.462;12.630;2024-02-21T11:42:29;14.00;99.90
16229;DHT22;8222;51.462;12.630;2024-02-21T11:45:00;14.00;99.90
16229;DHT22;8222;51.462;12.630;2024-02-21T11:47:25;13.90;99.90
16229;DHT22;8222;51.462;12.630;2024-02-21T11:49:51;13.90;99.90
16229;DHT22;8222;51.462;12.630;2024-02-21T11:52:26;14.00;99.90
16229;DHT22;8222;51.462;12.630;2024-02-21T11:54:55;14.10;99.90
16229;DHT22;8222;51.462;12.630;2024-02-21T11:57:29;14.20;99.90
16229;DHT22;8222;51.462;12.630;2024-02-21T11:59:55;14.30;99.90
16229;DHT22;8222;51.462;12.630;2024-02-21T12:02:21;14.20;99.90
16229;DHT22;8222;51.462;12.630;2024-02-21T12:04:48;14.00;99.90
16229;DHT22;8222;51.462;12.630;2024-02-21T12:07:14;14.00;99.90
16229;DHT22;8222;51.462;12.630;2024-02-21T12:09:43;13.80;99.90
16229;DHT22;8222;51.462;12.630;2024-02-21T12:12:08;13.90;99.90
16229;DHT22;8222;51.462;12.630;2024-02-21T12:14:35;14.10;99.90
16229;DHT22;8222;51.462;12.630;2024-02-21T12:17:03;14.30;99.90
16229;DHT22;8222;51.462;12.630;2024-02-21T12:19:30;14.10;99.90
16229;DHT22;8222;51.462;12.630;2024-02-21T12:21:59;14.20;99.90
16229;DHT22;8222;51.462;12.630;2024-02-21T12:24:31;14.40;99.90
16229;DHT22;8222;51.462;12.630;2024-02-21T12:26:57;14.80;99.90
16229;DHT22;8222;51.462;12.630;2024-02-21T12:29:24;14.50;99.90
16229;DHT22;8222;51.462;12.630;2024-02-21T12:31:50;14.60;99.90
16229;DHT22;8222;51.462;12.630;2024-02-21T12:34:18;14.60;99.90
16229;DHT22;8222;51.462;12.630;2024-02-21T12:36:45;14.60;99.90
16229;DHT22;8222;51.462;12.630;2024-02-21T12:39:14;14.60;99.90
16229;DHT22;8222;51.462;12.630;2024-02-21T12:41:42;14.60;99.90
16229;DHT22;8222;51.462;12.630;2024-02-21T12:44:10;14.40;99.90
16229;DHT22;8222;51.462;12.630;2024-02-21T12:46:38;14.30;99.90
16229;DHT22;8222;51.462;12.630;2024-02-21T12:49:05;14.20;99.90
16229;DHT22;8222;51.462;12.630;2024-02-21T12:51:33;14.10;99.90
16229;DHT22;8222;51.462;12.630;2024-02-21T12:53:59;14.20;99.90
16229;DHT22;8222;51.462;12.630;2024-02-21T12:56:25;14.30;99.90
16229;DHT22;8222;51.462;12.630;2024-02-21T12:58:53;14.40;99.90
16229;DHT22;8222;51.462;12.630;2024-02-21T13:01:18;14.30;99.90
16229;DHT22;8222;51.462;12.630;2024-02-21T13:03:46;14.20;99.90
16229;DHT22;8222;51.462;12.630;2024-02-21T13:06:14;14.20;99.90
16229;DHT22;8222;51.462;12.630;2024-02-21T13:08:40;14.20;99.90
16229;DHT22;8222;51.462;12.630;2024-02-21T13:11:06;14.60;99.90
16229;DHT22;8222;51.462;12.630;2024-02-21T13:13:32;14.70;99.90
16229;DHT22;8222;51.462;12.630;2024-02-21T13:16:00;14.50;99.90
16229;DHT22;8222;51.462;12.630;2024-02-21T13:18:26;14.50;99.90
16229;DHT22;8222;51.462;12.630;2024-02-21T13:20:51;14.50;99.90
16229;DHT22;8222;51.462;12.630;2024-02-21T13:23:17;14.30;99.90
16229;DHT22;8222;51.462;12.630;2024-02-21T13:25:43;14.20;99.90
16229;DHT22;8222;51.462;12.630;2024-02-21T13:28:11;14.20;99.90
16229;DHT22;8222;51.462;12.630;2024-02-21T13:30:42;14.30;99.90
16229;DHT22;8222;51.462;12.630;2024-02-21T13:33:10;14.30;99.90
16229;DHT22;8222;51.462;12.630;2024-02-21T13:35:36;14.20;99.90
16229;DHT22;8222;51.462;12.630;2024-02-21T13:38:02;14.30;99.90
16229;DHT22;8222;51.462;12.630;2024-02-21T13:40:28;14.50;99.90
16229;DHT22;8222;51.462;12.630;2024-02-21T13:42:54;14.70;99.90
16229;DHT22;8222;51.462;12.630;2024-02-21T13:45:25;15.20;99.90
16229;DHT22;8222;51.462;12.630;2024-02-21T13:47:53;14.70;99.90
16229;DHT22;8222;51.462;12.630;2024-02-21T13:50:19;14.70;99.90
16229;DHT22;8222;51.462;12.630;2024-02-21T13:52:46;14.60;99.90
16229;DHT22;8222;51.462;12.630;2024-02-21T13:55:12;14.60;99.90
16229;DHT22;8222;51.462;12.630;2024-02-21T13:57:37;14.50;99.90
16229;DHT22;8222;51.462;12.630;2024-02-21T14:00:04;14.60;99.90
16229;DHT22;8222;51.462;12.630;2024-02-21T14:02:30;14.60;99.90
16229;DHT22;8222;51.462;12.630;2024-02-21T14:04:56;14.60;99.90
16229;DHT22;8222;51.462;12.630;2024-02-21T14:07:27;14.60;99.90
16229;DHT22;8222;51.462;12.630;2024-02-21T14:09:52;14.60;99.90
16229;DHT22;8222;51.462;12.630;2024-02-21T14:12:18;14.60;99.90
16229;DHT22;8222;51.462;12.630;2024-02-21T14:14:47;14.60;99.90
16229;DHT22;8222;51.462;12.630;2024-02-21T14:17:15;14.50;99.90
16229;DHT22;8222;51.462;12.630;2024-02-21T14:19:41;14.40;99.90
16229;DHT22;8222;51.462;12.630;2024-02-21T14:22:09;14.30;99.90
16229;DHT22;8222;51.462;12.630;2024-02-21T14:24:36;14.40;99.90
16229;DHT22;8222;51.462;12.630;2024-02-21T14:27:07;14.40;99.90
16229;DHT22;8222;51.462;12.630;2024-02-21T14:29:34;14.60;99.90
16229;DHT22;8222;51.462;12.630;2024-02-21T14:32:00;14.60;99.90
16229;DHT22;8222;51.462;12.630;2024-02-21T14:34:25;14.60;99.90
16229;DHT22;8222;51.462;12.630;2024-02-21T14:36:51;14.60;99.90
16229;DHT22;8222;51.462;12.630;2024-02-21T14:39:19;14.60;99.90
16229;DHT22;8222;51.462;12.630;2024-02-21T14:41:45;14.60;99.90
16229;DHT22;8222;51.462;12.630;2024-02-21T14:44:10;14.60;99.90
16229;DHT22;8222;51.462;12.630;2024-02-21T14:46:37;14.50;99.90
16229;DHT22;8222;51.462;12.630;2024-02-21T14:49:03;14.40;99.90
16229;DHT22;8222;51.462;12.630;2024-02-21T14:51:29;14.30;99.90
16229;DHT22;8222;51.462;12.630;2024-02-21T14:53:57;14.20;99.90
16229;DHT22;8222;51.462;12.630;2024-02-21T14:56:25;14.10;99.90
16229;DHT22;8222;51.462;12.630;2024-02-21T14:58:51;14.00;99.90
16229;DHT22;8222;51.462;12.630;2024-02-21T15:01:21;13.90;99.90
16229;DHT22;8222;51.462;12.630;2024-02-21T15:03:47;13.80;99.90
16229;DHT22;8222;51.462;12.630;2024-02-21T15:06:15;13.80;99.90
16229;DHT22;8222;51.462;12.630;2024-02-21T15:08:40;13.70;99.90
16229;DHT22;8222;51.462;12.630;2024-02-21T15:11:06;13.60;99.90
16229;DHT22;8222;51.462;12.630;2024-02-21T15:13:33;13.60;99.90
16229;DHT22;8222;51.462;12.630;2024-02-21T15:15:58;13.60;99.90
16229;DHT22;8222;51.462;12.630;2024-02-21T15:18:24;13.50;99.90
16229;DHT22;8222;51.462;12.630;2024-02-21T15:20:50;13.50;99.90
16229;DHT22;8222;51.462;12.630;2024-02-21T15:23:15;13.80;99.90
16229;DHT22;8222;51.462;12.630;2024-02-21T15:25:42;13.60;99.90
16229;DHT22;8222;51.462;12.630;2024-02-21T15:28:09;13.50;99.90
16229;DHT22;8222;51.462;12.630;2024-02-21T15:30:40;13.50;99.90
16229;DHT22;8222;51.462;12.630;2024-02-21T15:33:06;13.50;99.90
16229;DHT22;8222;51.462;12.630;2024-02-21T15:35:31;13.50;99.90
16229;DHT22;8222;51.462;12.630;2024-02-21T15:38:00;13.60;99.90
16229;DHT22;8222;51.462;12.630;2024-02-21T15:40:25;13.60;99.90
16229;DHT22;8222;51.462;12.630;2024-02-21T15:42:51;13.50;99.90